createdAt,value
2022-12-18T00:00:49.177Z,100830.59
2022-12-18T00:03:35.359Z,100825.38
2022-12-18T00:06:19.612Z,100788.38
2022-12-18T00:09:05.263Z,100797.63
2022-12-18T00:11:49.310Z,100803.25
2022-12-18T00:14:33.860Z,100805.13
2022-12-18T00:17:17.947Z,100766.50
2022-12-18T00:20:03.518Z,100847.22
2022-12-18T00:22:47.682Z,100862.81
2022-12-18T00:25:31.589Z,100872.84
2022-12-18T00:28:15.626Z,100824.09
2022-12-18T00:31:03.495Z,100879.34
2022-12-18T00:33:47.626Z,100869.56
2022-12-18T00:36:37.005Z,100874.38
2022-12-18T00:39:20.994Z,100891.84
2022-12-18T00:42:27.716Z,100853.03
2022-12-18T00:45:13.206Z,100876.59
2022-12-18T00:47:58.207Z,100835.50
2022-12-18T00:50:42.294Z,100838.47
2022-12-18T00:53:27.873Z,100844.09
2022-12-18T00:56:14.662Z,100872.16
2022-12-18T00:58:58.637Z,100900.56
2022-12-18T01:01:42.773Z,100880.84
2022-12-18T01:04:26.922Z,100877.16
2022-12-18T01:07:10.920Z,100839.16
2022-12-18T01:09:56.449Z,100831.19
2022-12-18T01:12:40.852Z,100878.34
2022-12-18T01:15:24.807Z,100835.22
2022-12-18T01:18:09.505Z,100851.50
2022-12-18T01:20:53.520Z,100906.88
2022-12-18T01:23:38.046Z,100902.16
2022-12-18T01:26:23.694Z,100910.13
2022-12-18T01:29:08.156Z,100901.97
2022-12-18T01:31:52.588Z,100908.22
2022-12-18T01:34:37.718Z,100849.59
2022-12-18T01:37:21.467Z,100878.44
2022-12-18T01:40:07.678Z,100886.00
2022-12-18T01:42:53.766Z,100902.81
2022-12-18T01:45:37.776Z,100897.31
2022-12-18T01:48:21.865Z,100900.53
2022-12-18T01:51:06.593Z,100905.19
2022-12-18T01:53:50.836Z,100872.31
2022-12-18T01:56:34.749Z,100926.69
2022-12-18T01:59:20.097Z,100923.13
2022-12-18T02:02:05.358Z,100912.69
2022-12-18T02:04:49.681Z,100907.34
2022-12-18T02:07:44.896Z,100918.34
2022-12-18T02:10:33.805Z,100894.81
2022-12-18T02:13:23.199Z,100923.97
2022-12-18T02:16:34.535Z,100901.81
2022-12-18T02:19:39.940Z,100932.63
2022-12-18T02:22:31.867Z,100927.59
2022-12-18T02:25:25.114Z,100924.41
2022-12-18T02:28:15.895Z,100938.31
2022-12-18T02:31:03.941Z,100959.84
2022-12-18T02:33:49.399Z,100965.25
2022-12-18T02:36:34.735Z,100968.69
2022-12-18T02:39:19.864Z,100958.00
2022-12-18T02:42:14.713Z,100972.69
2022-12-18T02:44:59.948Z,100977.97
2022-12-18T02:47:51.803Z,100999.69
2022-12-18T02:50:39.801Z,101002.03
2022-12-18T02:53:33.934Z,100999.88
2022-12-18T02:56:22.232Z,101006.81
2022-12-18T02:59:11.856Z,100992.38
2022-12-18T03:02:07.053Z,100957.50
2022-12-18T03:05:00.899Z,100973.34
2022-12-18T03:07:49.154Z,101013.78
2022-12-18T03:10:37.907Z,101021.47
2022-12-18T03:13:28.072Z,100975.84
2022-12-18T03:16:16.560Z,101010.06
2022-12-18T03:19:06.472Z,101007.94
2022-12-18T03:21:55.710Z,101006.31
2022-12-18T03:24:41.177Z,100988.13
2022-12-18T03:27:26.973Z,100983.59
2022-12-18T03:30:15.696Z,100967.94
2022-12-18T03:33:08.191Z,100858.19
2022-12-18T03:35:55.027Z,100968.69
2022-12-18T03:38:40.261Z,100981.91
2022-12-18T03:41:31.875Z,100992.69
2022-12-18T03:44:47.188Z,100972.25
2022-12-18T03:47:37.951Z,100940.63
2022-12-18T03:50:29.982Z,100982.94
2022-12-18T03:53:25.291Z,100969.59
2022-12-18T03:56:11.965Z,100986.44
2022-12-18T03:58:59.908Z,100988.03
2022-12-18T04:01:49.737Z,100974.31
2022-12-18T04:04:35.608Z,101012.88
2022-12-18T04:07:22.320Z,101016.66
2022-12-18T04:10:13.319Z,101024.84
2022-12-18T04:13:00.158Z,101026.94
2022-12-18T04:15:44.999Z,101047.06
2022-12-18T04:18:32.488Z,101043.59
2022-12-18T04:21:18.177Z,101044.06
2022-12-18T04:24:03.853Z,101063.25
2022-12-18T04:26:49.069Z,101083.03
2022-12-18T04:29:35.831Z,101070.22
2022-12-18T04:32:19.603Z,101096.16
2022-12-18T04:35:07.715Z,101059.56
2022-12-18T04:37:52.179Z,101065.22
2022-12-18T04:40:36.093Z,101101.75
2022-12-18T04:43:23.911Z,101113.13
2022-12-18T04:46:09.597Z,101133.56
2022-12-18T04:48:53.728Z,100965.38
2022-12-18T04:51:37.457Z,101140.34
2022-12-18T04:54:21.290Z,101114.34
2022-12-18T04:57:05.035Z,101132.66
2022-12-18T04:59:50.201Z,101146.84
2022-12-18T05:02:34.157Z,101140.72
2022-12-18T05:05:18.473Z,101173.44
2022-12-18T05:08:02.236Z,101168.00
2022-12-18T05:10:46.516Z,101180.66
2022-12-18T05:13:30.698Z,101184.22
2022-12-18T05:16:16.250Z,101152.03
2022-12-18T05:19:00.020Z,101187.22
2022-12-18T05:21:43.682Z,101202.66
2022-12-18T05:24:28.054Z,101200.19
2022-12-18T05:27:11.783Z,101047.03
2022-12-18T05:29:55.540Z,101194.59
2022-12-18T05:32:41.148Z,101214.78
2022-12-18T05:35:24.935Z,101222.94
2022-12-18T05:38:08.698Z,101228.16
2022-12-18T05:40:53.109Z,101238.19
2022-12-18T05:43:38.539Z,101235.31
2022-12-18T05:46:22.546Z,101245.38
2022-12-18T05:49:07.757Z,101212.50
2022-12-18T05:51:51.593Z,101272.72
2022-12-18T05:54:35.486Z,101283.31
2022-12-18T05:57:19.400Z,101279.72
2022-12-18T06:00:03.325Z,101276.84
2022-12-18T06:02:56.105Z,101284.72
2022-12-18T06:05:43.219Z,101303.50
2022-12-18T06:08:27.018Z,101325.84
2022-12-18T06:11:10.792Z,101346.38
2022-12-18T06:13:58.695Z,101341.31
2022-12-18T06:16:43.163Z,101358.88
2022-12-18T06:19:26.961Z,101357.34
2022-12-18T06:22:12.102Z,101365.44
2022-12-18T06:24:56.029Z,101371.22
2022-12-18T06:27:39.782Z,101387.78
2022-12-18T06:30:23.691Z,101377.78
2022-12-18T06:33:07.807Z,101274.81
2022-12-18T06:35:52.787Z,101404.06
2022-12-18T06:38:42.449Z,101406.56
2022-12-18T06:41:26.573Z,101427.63
2022-12-18T06:44:10.349Z,101430.09
2022-12-18T06:46:54.957Z,101435.19
2022-12-18T06:49:38.732Z,101443.03
2022-12-18T06:52:22.533Z,101440.53
2022-12-18T06:55:09.073Z,101457.19
2022-12-18T06:57:52.944Z,101450.25
2022-12-18T07:00:37.100Z,101452.13
2022-12-18T07:03:21.059Z,101476.13
2022-12-18T07:06:05.512Z,101313.13
2022-12-18T07:08:50.221Z,101486.06
2022-12-18T07:11:36.311Z,101456.22
2022-12-18T07:14:20.263Z,101469.66
2022-12-18T07:17:04.229Z,101341.94
2022-12-18T07:19:48.026Z,101506.13
2022-12-18T07:22:31.771Z,101502.31
2022-12-18T07:25:15.468Z,101449.63
2022-12-18T07:28:00.623Z,101511.69
2022-12-18T07:30:44.395Z,101511.16
2022-12-18T07:33:28.257Z,101503.59
2022-12-18T07:36:13.386Z,101513.09
2022-12-18T07:38:57.225Z,101523.53
2022-12-18T07:41:46.752Z,101533.97
2022-12-18T07:44:34.664Z,101500.75
2022-12-18T07:47:18.476Z,101529.78
2022-12-18T07:50:02.244Z,101404.91
2022-12-18T07:52:46.713Z,101565.16
2022-12-18T07:55:47.918Z,101518.38
2022-12-18T07:58:35.001Z,101537.03
2022-12-18T08:01:20.234Z,101538.38
2022-12-18T08:04:05.375Z,101543.06
2022-12-18T08:06:49.216Z,101550.47
2022-12-18T08:09:33.043Z,101550.00
2022-12-18T08:12:16.881Z,101561.41
2022-12-18T08:15:00.679Z,101568.84
2022-12-18T08:17:45.785Z,101563.72
2022-12-18T08:20:29.549Z,101545.78
2022-12-18T08:23:13.361Z,101564.91
2022-12-18T08:25:57.157Z,101575.09
2022-12-18T08:28:41.075Z,101571.66
2022-12-18T08:31:25.727Z,101564.38
2022-12-18T08:34:11.209Z,101558.09
2022-12-18T08:36:55.001Z,101547.34
2022-12-18T08:39:38.808Z,101564.38
2022-12-18T08:42:40.142Z,101570.59
2022-12-18T08:45:23.943Z,101563.59
2022-12-18T08:48:08.087Z,101570.53
2022-12-18T08:50:58.487Z,101569.88
2022-12-18T08:53:42.528Z,101559.19
2022-12-18T08:56:26.795Z,101567.78
2022-12-18T08:59:15.909Z,101564.22
2022-12-18T09:02:03.240Z,101564.81
2022-12-18T09:04:55.378Z,101517.00
2022-12-18T09:07:42.518Z,101527.28
2022-12-18T09:10:26.271Z,101549.84
2022-12-18T09:13:10.078Z,101555.13
2022-12-18T09:15:56.312Z,101539.25
2022-12-18T09:18:40.330Z,101528.75
2022-12-18T09:21:24.478Z,101540.31
2022-12-18T09:24:15.406Z,101532.69
2022-12-18T09:26:59.867Z,101525.56
2022-12-18T09:29:43.588Z,101543.81
2022-12-18T09:32:27.414Z,101504.72
2022-12-18T09:35:11.151Z,101544.13
2022-12-18T09:37:55.479Z,101553.78
2022-12-18T09:40:45.962Z,101561.53
2022-12-18T09:43:35.886Z,101559.91
2022-12-18T09:46:26.516Z,101553.16
2022-12-18T09:49:16.849Z,101539.78
2022-12-18T09:52:07.060Z,101538.41
2022-12-18T09:54:55.683Z,101531.13
2022-12-18T09:57:47.510Z,101537.41
2022-12-18T10:00:31.502Z,101494.66
2022-12-18T10:03:17.309Z,101535.56
2022-12-18T10:06:08.717Z,101533.94
2022-12-18T10:09:01.035Z,101530.84
2022-12-18T10:11:55.209Z,101521.19
2022-12-18T10:14:50.188Z,101523.63
2022-12-18T10:17:44.496Z,101519.41
2022-12-18T10:20:34.264Z,101519.16
2022-12-18T10:23:27.529Z,101518.47
2022-12-18T10:26:13.728Z,101513.19
2022-12-18T10:29:05.579Z,101513.09
2022-12-18T10:31:51.052Z,101525.72
2022-12-18T10:34:35.009Z,101533.50
2022-12-18T10:37:21.147Z,101531.47
2022-12-18T10:40:18.443Z,101532.41
2022-12-18T10:43:07.379Z,101538.88
2022-12-18T10:46:19.517Z,101540.47
2022-12-18T10:49:04.975Z,101527.22
2022-12-18T10:51:49.026Z,101543.28
2022-12-18T10:54:34.153Z,101548.47
2022-12-18T10:57:31.594Z,101549.72
2022-12-18T11:00:26.215Z,101554.81
2022-12-18T11:03:32.652Z,101557.84
2022-12-18T11:06:19.847Z,101552.50
2022-12-18T11:09:13.131Z,101552.25
2022-12-18T11:12:00.317Z,101583.19
2022-12-18T11:14:48.043Z,101583.66
2022-12-18T11:17:34.697Z,101586.41
2022-12-18T11:20:33.934Z,101581.09
2022-12-18T11:23:21.375Z,101583.91
2022-12-18T11:26:07.056Z,101575.44
2022-12-18T11:28:53.839Z,101598.94
2022-12-18T11:31:37.702Z,101599.22
2022-12-18T11:34:29.764Z,101585.34
2022-12-18T11:37:20.182Z,101606.50
2022-12-18T11:40:13.902Z,101455.41
2022-12-18T11:43:06.645Z,101549.47
2022-12-18T11:45:56.382Z,101597.03
2022-12-18T11:48:47.020Z,101547.84
2022-12-18T11:51:37.213Z,101586.91
2022-12-18T11:54:20.964Z,101581.06
2022-12-18T11:57:18.628Z,101601.78
2022-12-18T12:00:07.356Z,101604.75
2022-12-18T12:03:27.968Z,101587.56
2022-12-18T12:06:19.476Z,101586.75
2022-12-18T12:09:15.112Z,101591.00
2022-12-18T12:12:14.640Z,101600.06
2022-12-18T12:15:12.473Z,101596.19
2022-12-18T12:18:08.172Z,101605.03
2022-12-18T12:21:05.292Z,101617.00
2022-12-18T12:23:55.441Z,101633.94
2022-12-18T12:26:47.356Z,101631.56
2022-12-18T12:29:44.770Z,101647.78
2022-12-18T12:32:48.512Z,101637.88
2022-12-18T12:35:44.922Z,101601.56
2022-12-18T12:38:33.700Z,101642.00
2022-12-18T12:41:39.349Z,101622.13
2022-12-18T12:44:28.418Z,101634.41
2022-12-18T12:47:18.828Z,101685.78
2022-12-18T12:50:08.014Z,101671.16
2022-12-18T12:52:55.518Z,101677.03
2022-12-18T12:55:41.272Z,101687.03
2022-12-18T12:58:33.639Z,101655.84
2022-12-18T13:01:27.585Z,101681.44
2022-12-18T13:04:24.089Z,101677.47
2022-12-18T13:07:14.896Z,101671.59
2022-12-18T13:10:26.817Z,101676.06
2022-12-18T13:13:11.677Z,101663.97
2022-12-18T13:16:07.437Z,101674.56
2022-12-18T13:18:52.465Z,101681.59
2022-12-18T13:21:37.714Z,101697.69
2022-12-18T13:24:27.464Z,101657.47
2022-12-18T13:27:44.358Z,101691.41
2022-12-18T13:30:49.436Z,101707.91
2022-12-18T13:36:51.487Z,101697.44
2022-12-18T13:39:36.941Z,101694.88
2022-12-18T13:43:08.451Z,101691.16
2022-12-18T13:46:03.075Z,101663.03
2022-12-18T13:48:54.648Z,101694.00
2022-12-18T13:51:42.907Z,101728.03
2022-12-18T13:54:35.355Z,101681.94
2022-12-18T13:57:30.883Z,101695.81
2022-12-18T14:00:29.719Z,101749.78
2022-12-18T14:03:27.294Z,101755.16
2022-12-18T14:06:14.136Z,101744.81
2022-12-18T14:09:00.690Z,101757.91
2022-12-18T14:11:50.952Z,101769.38
2022-12-18T14:14:35.926Z,101703.00
2022-12-18T14:17:21.218Z,101765.88
2022-12-18T14:20:14.982Z,101766.81
2022-12-18T14:22:59.702Z,101773.66
2022-12-18T14:25:48.578Z,101773.00
2022-12-18T14:28:34.016Z,101759.16
2022-12-18T14:31:22.430Z,101779.16
2022-12-18T14:34:06.314Z,101756.50
2022-12-18T14:36:57.013Z,101796.69
2022-12-18T14:39:41.233Z,101801.63
2022-12-18T14:42:29.243Z,101798.31
2022-12-18T14:45:41.440Z,101801.59
2022-12-18T14:48:38.380Z,101700.97
2022-12-18T14:51:24.432Z,101807.09
2022-12-18T14:54:19.274Z,101808.97
2022-12-18T14:57:05.997Z,101815.81
2022-12-18T14:59:49.949Z,101810.75
2022-12-18T15:02:38.153Z,101802.09
2022-12-18T15:05:26.851Z,101802.81
2022-12-18T15:08:42.978Z,101822.75
2022-12-18T15:11:36.057Z,101812.56
2022-12-18T15:14:36.726Z,101833.22
2022-12-18T15:17:24.133Z,101852.66
2022-12-18T15:20:13.699Z,101802.06
2022-12-18T15:22:57.583Z,101839.50
2022-12-18T15:25:41.569Z,101851.47
2022-12-18T15:28:29.547Z,101862.34
2022-12-18T15:31:26.441Z,101860.59
2022-12-18T15:34:22.732Z,101847.50
2022-12-18T15:37:09.620Z,101866.66
2022-12-18T15:39:53.588Z,101877.16
2022-12-18T15:42:54.647Z,101872.78
2022-12-18T15:45:38.537Z,101837.94
2022-12-18T15:48:24.263Z,101845.00
2022-12-18T15:51:16.898Z,101881.63
2022-12-18T15:54:05.031Z,101856.31
2022-12-18T15:57:06.502Z,101885.94
2022-12-18T15:59:50.435Z,101890.19
2022-12-18T16:02:34.537Z,101902.19
2022-12-18T16:05:20.417Z,101909.16
2022-12-18T16:08:04.528Z,101919.66
2022-12-18T16:10:49.934Z,101911.69
2022-12-18T16:13:34.186Z,101919.47
2022-12-18T16:16:18.676Z,101931.31
2022-12-18T16:19:02.531Z,101926.06
2022-12-18T16:21:48.569Z,101925.09
2022-12-18T16:24:37.292Z,101913.72
2022-12-18T16:27:23.440Z,101927.88
2022-12-18T16:30:08.993Z,101917.28
2022-12-18T16:32:52.921Z,101924.38
2022-12-18T16:35:38.316Z,101922.72
2022-12-18T16:38:22.373Z,101921.94
2022-12-18T16:41:36.554Z,101928.06
2022-12-18T16:44:22.217Z,101918.56
2022-12-18T16:47:06.260Z,101881.91
2022-12-18T16:49:53.559Z,101949.09
2022-12-18T16:52:41.148Z,101922.06
2022-12-18T16:55:25.077Z,101940.38
2022-12-18T16:58:09.040Z,101950.84
2022-12-18T17:00:54.437Z,101947.38
2022-12-18T17:03:38.928Z,101946.41
2022-12-18T17:06:23.108Z,101922.03
2022-12-18T17:09:09.283Z,101931.66
2022-12-18T17:11:53.651Z,101966.53
2022-12-18T17:14:37.946Z,101872.31
2022-12-18T17:17:24.104Z,101972.69
2022-12-18T17:20:09.030Z,101936.88
2022-12-18T17:22:53.094Z,101963.09
2022-12-18T17:25:41.249Z,101964.81
2022-12-18T17:28:26.066Z,101971.78
2022-12-18T17:31:14.243Z,101934.25
2022-12-18T17:34:00.348Z,101963.06
2022-12-18T17:36:44.405Z,101976.16
2022-12-18T17:39:29.039Z,101991.00
2022-12-18T17:42:15.380Z,101984.03
2022-12-18T17:44:59.860Z,101970.91
2022-12-18T17:47:43.797Z,101998.00
2022-12-18T17:50:29.128Z,102004.13
2022-12-18T17:53:13.249Z,101974.38
2022-12-18T17:55:57.764Z,101993.63
2022-12-18T17:58:42.364Z,102011.06
2022-12-18T18:01:27.384Z,102015.41
2022-12-18T18:04:11.666Z,101959.56
2022-12-18T18:06:57.200Z,101992.72
2022-12-18T18:09:41.210Z,101952.56
2022-12-18T18:12:42.849Z,102004.09
2022-12-18T18:15:26.916Z,102018.03
2022-12-18T18:18:11.112Z,102015.41
2022-12-18T18:20:55.744Z,102022.38
2022-12-18T18:23:41.961Z,102025.00
2022-12-18T18:26:29.489Z,102018.94
2022-12-18T18:29:15.992Z,102029.38
2022-12-18T18:32:02.678Z,102030.25
2022-12-18T18:34:46.618Z,102027.63
2022-12-18T18:37:30.802Z,102032.81
2022-12-18T18:40:16.618Z,102032.88
2022-12-18T18:43:02.676Z,102026.72
2022-12-18T18:45:48.714Z,102027.56
2022-12-18T18:48:35.917Z,102041.44
2022-12-18T18:51:21.970Z,102046.78
2022-12-18T18:54:06.291Z,102052.94
2022-12-18T18:59:55.857Z,101997.75
2022-12-18T19:02:39.909Z,102034.28
2022-12-18T19:05:23.935Z,102055.22
2022-12-18T19:08:07.960Z,102051.84
2022-12-18T19:10:57.657Z,102054.47
2022-12-18T19:13:42.538Z,102069.16
2022-12-18T19:16:28.261Z,102070.91
2022-12-18T19:19:12.355Z,102063.03
2022-12-18T19:21:56.675Z,102077.84
2022-12-18T19:24:40.799Z,102078.78
2022-12-18T19:27:24.687Z,101930.78
2022-12-18T19:30:11.950Z,102084.69
2022-12-18T19:32:56.206Z,102066.50
2022-12-18T19:35:41.272Z,102076.84
2022-12-18T19:38:25.670Z,102084.69
2022-12-18T19:41:10.035Z,102075.94
2022-12-18T19:43:54.301Z,102097.66
2022-12-18T19:46:42.004Z,102044.34
2022-12-18T19:49:26.064Z,102078.44
2022-12-18T19:52:09.791Z,102074.06
2022-12-18T19:54:53.746Z,102090.75
2022-12-18T19:57:37.416Z,102087.13
2022-12-18T20:00:23.730Z,102088.72
2022-12-18T20:03:21.241Z,102084.28
2022-12-18T20:06:12.102Z,102094.78
2022-12-18T20:09:00.250Z,102089.66
2022-12-18T20:11:45.124Z,102039.59
2022-12-18T20:14:29.265Z,102076.59
2022-12-18T20:17:13.391Z,102087.91
2022-12-18T20:19:59.056Z,102050.19
2022-12-18T20:22:42.808Z,102100.09
2022-12-18T20:25:26.640Z,102113.00
2022-12-18T20:28:10.479Z,102109.53
2022-12-18T20:31:01.561Z,102044.66
2022-12-18T20:33:48.614Z,102105.97
2022-12-18T20:36:36.431Z,102059.44
2022-12-18T20:39:22.575Z,102069.88
2022-12-18T20:42:06.864Z,102059.41
2022-12-18T20:44:51.103Z,102109.34
2022-12-18T20:47:35.011Z,102099.69
2022-12-18T20:50:19.116Z,102103.16
2022-12-18T20:53:05.249Z,102110.19
2022-12-18T20:55:49.190Z,102117.19
2022-12-18T20:58:33.195Z,102120.50
2022-12-18T21:01:20.587Z,102060.06
2022-12-18T21:04:04.656Z,102096.88
2022-12-18T21:06:54.278Z,102127.47
2022-12-18T21:09:47.522Z,102130.06
2022-12-18T21:12:48.204Z,102073.22
2022-12-18T21:15:39.062Z,102136.28
2022-12-18T21:18:23.115Z,102143.06
2022-12-18T21:21:07.392Z,102148.50
2022-12-18T21:23:52.019Z,102044.94
2022-12-18T21:26:44.848Z,102147.44
2022-12-18T21:29:29.709Z,102100.09
2022-12-18T21:32:14.186Z,102151.78
2022-12-18T21:34:58.053Z,102154.19
2022-12-18T21:37:41.882Z,102142.09
2022-12-18T21:40:26.250Z,102147.47
2022-12-18T21:43:29.628Z,102154.34
2022-12-18T21:46:13.420Z,102142.09
2022-12-18T21:48:57.224Z,102109.00
2022-12-18T21:51:41.575Z,102142.34
2022-12-18T21:54:27.209Z,101936.22
2022-12-18T21:57:13.436Z,102144.69
2022-12-18T21:59:58.851Z,102086.78
2022-12-18T22:02:43.038Z,102135.94
2022-12-18T22:05:27.117Z,102086.81
2022-12-18T22:08:11.222Z,102110.75
2022-12-18T22:10:55.551Z,102093.91
2022-12-18T22:13:39.560Z,102125.09
2022-12-18T22:16:25.166Z,102141.88
2022-12-18T22:19:09.675Z,102140.84
2022-12-18T22:21:54.079Z,102108.34
2022-12-18T22:24:38.045Z,102152.38
2022-12-18T22:27:22.060Z,102153.34
2022-12-18T22:30:05.990Z,102150.44
2022-12-18T22:32:51.337Z,102124.25
2022-12-18T22:35:35.238Z,102152.38
2022-12-18T22:38:19.807Z,102156.38
2022-12-18T22:41:03.790Z,102122.19
2022-12-18T22:43:47.751Z,102110.97
2022-12-18T22:46:34.606Z,102118.13
2022-12-18T22:49:22.269Z,102163.31
2022-12-18T22:52:09.447Z,102151.03
2022-12-18T22:54:54.253Z,102163.53
2022-12-18T22:57:38.386Z,102166.47
2022-12-18T23:00:24.859Z,102114.75
2022-12-18T23:03:09.806Z,102172.38
2022-12-18T23:06:02.901Z,102136.84
2022-12-18T23:08:50.544Z,102181.31
2022-12-18T23:11:38.422Z,102134.09
2022-12-18T23:14:22.526Z,102179.63
2022-12-18T23:17:06.495Z,102149.66
2022-12-18T23:19:50.494Z,102173.25
2022-12-18T23:22:35.856Z,102126.97
2022-12-18T23:25:19.664Z,102167.06
2022-12-18T23:28:03.534Z,102156.59
2022-12-18T23:30:47.345Z,102018.88
2022-12-18T23:33:31.145Z,102178.25
2022-12-18T23:36:16.015Z,102176.97
2022-12-18T23:39:02.320Z,102195.88
2022-12-18T23:41:46.037Z,102163.25
2022-12-18T23:44:29.854Z,102196.47
2022-12-18T23:47:13.679Z,102190.88
2022-12-18T23:49:57.425Z,102204.03
2022-12-18T23:52:41.145Z,102193.00
2022-12-18T23:55:26.329Z,102180.19
2022-12-18T23:58:17.913Z,102212.38
